YHY weather

Hay River / Merlyn Carter Airport
Hay River, Northwest Territories, Canada

Public forecast

Using degrees Celsius for public forecast. Weather courtesy of forecast.io.

Current aviation weather report (METAR) for Hay River / Merlyn Carter Airport

Retrieved 2020/08/07 04:00 UTC (21 minutes ago):

CYHY 070400Z 08013KT 15SM FEW150 BKN230 17/15 A2953 RMK AC2CI4 PRESFR SLP006 DENSITY ALT 1400FT

Aviation forecast (TAF) for Hay River / Merlyn Carter Airport

Retrieved 2020-08-07 00:39 UTC (4 hours ago):

TAF CYHY 062338Z 0700/0712 07014KT P6SM FEW070 SCT230 BECMG 0702/0704 08010KT FM070700 11008KT P6SM BKN100 TEMPO 0707/0712 P6SM -SHRA VCTS BKN080CB RMK NXT FCST BY 070600Z